Etusivu
METAR-TAF:

METAR-TAF

Lentoasemat :

Castres, Ranska

Leveyspiiri: 43-33-25N, Pituuspiiri: 2-17-21E, korkeus merenpinnasta: 239 m

Tämänhetkinen sää

Tämä raportti tehtiin 43 minuuttia sitten, kello 03.30 UTC
Tuuli 3 kn idästä/kaakosta
Lämpötila 14°C
Kosteus 94%
Ilmanpaine 1025 hPa
Näkyvyys: 4000 m
Pilvistä 800 ft:n korkeudessa
utua

METAR: LFCK 210330Z AUTO 12003KT 4000 BR OVC008 14/13 Q1025

Aika: 06:13 (04:13 UTC)

Sääennuste

Tämä raportti tehtiin 8 tuntia ja 46 minuuttia sitten, kello 19.27 UTC
Ennuste voimassa 20. päivästä klo 19 UTC - 21. päivään klo 03 UTC
Tuuli 2 kn eri suunnista
Näkyvyys: 5000 m
Tulossa
20. päivästä klo 19 UTC - 20. päivään klo 21 UTC
Näkyvyys: 2500 m
Hajonneita pilviä 500 ft:n korkeudessa
utua

TAF: LFCK 201927Z 2019/2103 VRB02KT 5000 NSC BECMG 2019/2021 2500 BR BKN005

Säähavainnot ja -ennusteet yli 4000 lentoasemalta (METAR- ja TAF-raportit).

Käytössä olevat sääasemat on merkitty karttaan keltaisilla ja punaisilla pisteillä.

Aseta hiiri pisteen päälle nähdäksesi sääaseman nimen.

Klikkaa sitten nähdäksesi säähavainnot ja -ennusteet.

Kartan vaihtaminen: klikkaa mustalla rastilla varustettuja vihreitä pisteitä, niin voit zoomata sisään; viivalla varustettua vihreää pistettä, niin voit zoomata ulos tai vihreitä nuolia, niin pääset viereisille kartoille.


METAR-TAF: